Time;durP1;ratioP1;P1;durP2;ratioP2;P2;SDS_P1;SDS_P2;PMS_P1;PMS_P2;Temp;Humidity;BMP_temperature;BMP_pressure;BME280_temperature;BME280_humidity;BME280_pressure;Samples;Min_cycle;Max_cycle;Signal;HPM_P1;HPM_P2
2024/02/07 00:03:00;;;;;;;3.80;1.90;;;;;;;17.29;56.64;100149.53;10414651;28;20029;-57
2024/02/07 00:08:01;;;;;;;3.92;1.30;;;;;;;17.28;57.00;100148.69;10422781;28;20302;-56
2024/02/07 00:13:01;;;;;;;3.25;1.45;;;;;;;17.26;55.57;100142.84;10417703;28;20044;-57
2024/02/07 00:18:01;;;;;;;3.87;1.67;;;;;;;17.23;56.50;100141.56;10414282;28;20053;-57
2024/02/07 00:23:02;;;;;;;3.20;1.42;;;;;;;17.27;55.37;100159.72;10413836;28;20279;-56
2024/02/07 00:28:02;;;;;;;2.88;1.42;;;;;;;17.29;56.75;100158.34;10414058;28;20037;-57
2024/02/07 00:33:03;;;;;;;3.42;1.50;;;;;;;17.34;56.55;100176.97;10414780;28;20609;-55
2024/02/07 00:38:04;;;;;;;3.60;1.50;;;;;;;17.34;55.60;100200.31;10413540;28;20029;-57
2024/02/07 00:43:04;;;;;;;3.20;1.92;;;;;;;17.30;56.44;100176.00;10411931;28;20400;-56
2024/02/07 00:48:04;;;;;;;3.40;1.83;;;;;;;17.28;55.37;100198.81;10413364;28;20036;-55
2024/02/07 00:53:06;;;;;;;3.75;1.50;;;;;;;17.30;56.14;100188.63;10412798;28;20105;-57
2024/02/07 00:58:06;;;;;;;2.88;1.33;;;;;;;17.29;55.30;100201.22;10411530;28;20025;-56
2024/02/07 01:03:07;;;;;;;2.13;1.00;;;;;;;17.29;55.56;100187.03;10412201;28;20029;-57
2024/02/07 01:08:07;;;;;;;4.43;1.47;;;;;;;17.29;55.62;100179.78;10421765;28;20029;-57
2024/02/07 01:13:08;;;;;;;2.67;1.25;;;;;;;17.28;56.79;100180.84;10414268;28;20288;-57
2024/02/07 01:18:08;;;;;;;4.55;1.33;;;;;;;17.26;56.40;100191.06;10411316;28;20325;-57
2024/02/07 01:23:09;;;;;;;2.58;1.15;;;;;;;17.28;56.58;100190.78;10411434;28;20018;-57
2024/02/07 01:28:09;;;;;;;2.50;1.10;;;;;;;17.29;56.30;100187.03;10411679;28;20026;-57
2024/02/07 01:33:09;;;;;;;2.33;1.10;;;;;;;17.30;56.33;100184.03;10436805;28;20291;-57
2024/02/07 01:38:17;;;;;;;2.55;1.45;;;;;;;17.31;56.14;100198.25;10411204;28;20774;-56
2024/02/07 01:43:17;;;;;;;1.88;0.93;;;;;;;17.34;55.39;100197.63;10410660;28;20020;-56
2024/02/07 01:48:18;;;;;;;2.87;0.90;;;;;;;17.35;54.57;100193.84;10410928;28;20036;-56
2024/02/07 01:53:19;;;;;;;2.28;1.30;;;;;;;17.34;55.10;100184.22;10410177;28;20288;-56
2024/02/07 01:58:20;;;;;;;2.80;0.80;;;;;;;17.33;54.97;100199.53;10410664;28;20033;-57
2024/02/07 02:03:20;;;;;;;2.45;1.00;;;;;;;17.35;55.87;100175.88;10408541;28;20018;-56
2024/02/07 02:08:21;;;;;;;2.43;1.27;;;;;;;17.35;55.08;100188.50;10421560;28;20032;-56
2024/02/07 02:13:22;;;;;;;3.85;1.15;;;;;;;17.35;56.17;100199.22;10411753;28;20296;-56
2024/02/07 02:18:22;;;;;;;1.27;0.82;;;;;;;17.34;56.10;100198.44;10409523;28;20041;-56
2024/02/07 02:24:22;;;;;;;2.90;1.27;;;;;;;17.31;54.76;100214.31;10409500;28;20022;-56
2024/02/07 02:29:32;;;;;;;2.42;1.48;;;;;;;17.35;55.48;100209.94;10357636;28;20037;-55
2024/02/07 02:34:34;;;;;;;2.35;0.70;;;;;;;17.32;55.83;100197.94;10362914;28;20038;-56
2024/02/07 02:39:35;;;;;;;1.48;0.95;;;;;;;17.32;55.19;100199.81;10362927;28;20034;-57
2024/02/07 02:44:35;;;;;;;1.95;0.63;;;;;;;17.33;55.03;100202.19;10362095;28;20087;-56
2024/02/07 02:49:36;;;;;;;1.67;0.70;;;;;;;17.30;55.68;100205.47;10346309;28;20088;-56
2024/02/07 02:54:36;;;;;;;2.33;0.77;;;;;;;17.33;55.39;100223.63;10362090;28;20301;-57
2024/02/07 02:59:36;;;;;;;2.17;0.73;;;;;;;17.34;54.33;100233.25;10362516;28;20625;-57
2024/02/07 03:04:41;;;;;;;1.67;0.50;;;;;;;17.33;55.43;100239.72;10393785;28;20038;-57
2024/02/07 03:09:48;;;;;;;1.85;0.55;;;;;;;17.33;55.12;100255.78;10421810;28;20064;-57
2024/02/07 03:14:49;;;;;;;1.83;0.60;;;;;;;17.32;54.64;100248.84;10408335;28;20492;-57
2024/02/07 03:19:49;;;;;;;1.20;0.50;;;;;;;17.30;55.77;100237.63;10408191;28;20041;-57
2024/02/07 03:24:55;;;;;;;1.73;0.50;;;;;;;17.31;54.12;100241.91;10407931;28;20270;-56
2024/02/07 03:29:56;;;;;;;1.35;0.80;;;;;;;17.31;54.68;100235.75;10412268;28;20056;-56
2024/02/07 03:34:56;;;;;;;2.00;0.70;;;;;;;17.30;55.81;100242.22;10429797;28;20024;-55
2024/02/07 03:39:57;;;;;;;1.27;0.50;;;;;;;17.32;54.35;100231.97;10408339;28;20084;-57
2024/02/07 03:44:59;;;;;;;2.93;1.20;;;;;;;17.31;55.19;100225.81;10414313;28;20067;-57
2024/02/07 03:50:04;;;;;;;0.88;0.50;;;;;;;17.27;54.66;100226.69;10415522;28;20329;-56
2024/02/07 03:55:08;;;;;;;1.00;0.60;;;;;;;17.30;55.20;100218.09;10414985;28;20112;-57
2024/02/07 04:00:13;;;;;;;1.92;0.50;;;;;;;17.29;55.03;100217.28;10414911;28;20112;-55
2024/02/07 04:05:13;;;;;;;1.08;0.50;;;;;;;17.28;55.29;100223.72;10412552;28;20017;-57
2024/02/07 04:10:14;;;;;;;0.85;0.63;;;;;;;17.30;54.61;100228.81;10425284;28;20393;-55
2024/02/07 05:19:01;;;;;;;2.30;0.97;;;;;;;17.40;55.18;100226.69;10426084;28;20544;-56
2024/02/07 05:24:03;;;;;;;1.45;0.77;;;;;;;17.31;55.66;100230.41;10411328;28;20036;-55
2024/02/07 05:29:03;;;;;;;2.22;1.15;;;;;;;17.28;56.63;100249.72;10408402;28;20108;-57
2024/02/07 05:34:04;;;;;;;1.20;0.90;;;;;;;17.24;56.49;100261.03;10435008;28;20029;-55
2024/02/07 05:39:04;;;;;;;2.47;1.10;;;;;;;17.27;55.79;100272.25;10408071;28;20309;-55
2024/02/07 05:44:04;;;;;;;2.20;1.00;;;;;;;17.23;55.49;100274.75;10421255;28;20023;-55
2024/02/07 05:49:05;;;;;;;0.80;0.60;;;;;;;17.22;55.19;100291.91;10407210;28;20033;-55
2024/02/07 05:54:07;;;;;;;2.83;1.13;;;;;;;17.28;54.89;100297.94;10407539;28;20048;-57
2024/02/07 05:59:08;;;;;;;1.23;0.73;;;;;;;17.32;55.49;100294.41;10406725;28;20530;-56
2024/02/07 06:04:08;;;;;;;1.97;0.70;;;;;;;17.30;54.89;100303.84;10407392;28;20183;-54
2024/02/07 06:09:08;;;;;;;2.33;0.70;;;;;;;17.34;55.67;100312.84;10419801;28;20612;-55
2024/02/07 06:14:10;;;;;;;2.00;1.00;;;;;;;17.32;56.42;100315.84;10447186;28;20295;-55
2024/02/07 06:19:11;;;;;;;6.93;1.40;;;;;;;17.45;56.54;100317.72;10445244;28;20069;-56
2024/02/07 06:24:12;;;;;;;4.82;1.10;;;;;;;17.52;55.58;100320.00;10409811;28;20071;-57
2024/02/07 06:29:12;;;;;;;7.30;1.53;;;;;;;17.45;56.72;100325.78;10409141;28;20622;-57
2024/02/07 06:34:12;;;;;;;4.37;1.07;;;;;;;17.44;57.28;100318.03;10410644;28;20295;-56
2024/02/07 06:39:13;;;;;;;5.15;1.10;;;;;;;17.48;55.75;100332.41;10409239;28;20619;-56
2024/02/07 06:44:13;;;;;;;8.03;1.67;;;;;;;17.44;56.81;100328.75;10409641;28;20017;-57
2024/02/07 06:49:13;;;;;;;8.57;1.87;;;;;;;17.40;56.09;100343.81;10408595;28;20288;-57
2024/02/07 06:54:14;;;;;;;6.25;1.58;;;;;;;17.35;55.53;100346.59;10419403;28;20291;-58
2024/02/07 06:59:14;;;;;;;12.00;1.93;;;;;;;17.27;56.27;100356.09;10424859;28;20057;-57
2024/02/07 07:04:14;;;;;;;9.18;1.75;;;;;;;17.22;57.09;100351.66;10414823;28;20283;-58
2024/02/07 07:09:15;;;;;;;5.05;1.52;;;;;;;17.20;56.18;100348.47;10420117;28;20469;-58
2024/02/07 07:14:15;;;;;;;6.97;1.75;;;;;;;17.19;56.02;100338.06;10405932;28;20040;-59
2024/02/07 07:19:16;;;;;;;11.70;1.27;;;;;;;17.17;55.22;100342.91;10448012;28;20676;-59
2024/02/07 07:24:16;;;;;;;6.97;1.35;;;;;;;17.19;55.72;100340.72;10456484;28;20289;-59
2024/02/07 07:29:17;;;;;;;4.43;1.07;;;;;;;17.18;56.44;100333.78;10455610;28;20032;-58
2024/02/07 07:34:17;;;;;;;11.48;1.50;;;;;;;17.16;56.12;100354.69;10419480;28;20280;-58
2024/02/07 07:39:19;;;;;;;7.10;1.77;;;;;;;17.14;55.52;100360.34;10414127;28;20033;-59
2024/02/07 07:44:19;;;;;;;6.00;1.40;;;;;;;17.14;56.21;100357.66;10414229;28;20279;-58
2024/02/07 07:49:19;;;;;;;4.23;1.50;;;;;;;17.18;55.55;100372.09;10413675;28;20102;-57
2024/02/07 07:54:20;;;;;;;5.07;1.53;;;;;;;17.20;55.84;100391.34;10414205;28;20296;-58
2024/02/07 07:59:20;;;;;;;4.20;1.10;;;;;;;17.20;56.17;100394.03;10413867;28;20663;-58
2024/02/07 08:04:20;;;;;;;3.67;1.17;;;;;;;17.19;54.45;100411.19;10402772;28;20284;-58
2024/02/07 08:09:21;;;;;;;6.90;1.63;;;;;;;17.20;55.51;100402.06;10426790;28;20877;-58
2024/02/07 08:14:21;;;;;;;4.87;0.97;;;;;;;17.24;54.57;100412.97;10413222;28;20292;-59
2024/02/07 08:19:21;;;;;;;2.47;0.90;;;;;;;17.24;54.96;100424.47;10412261;28;20300;-58
2024/02/07 08:24:22;;;;;;;5.90;0.93;;;;;;;17.23;54.12;100420.22;10413416;28;20275;-58
2024/02/07 08:29:22;;;;;;;4.03;0.73;;;;;;;17.23;55.28;100417.53;10412607;28;20025;-58
2024/02/07 08:34:22;;;;;;;4.32;1.80;;;;;;;17.21;55.25;100425.06;10412789;28;20021;-58
2024/02/07 08:39:23;;;;;;;2.10;0.70;;;;;;;17.19;54.73;100443.34;10425966;28;20120;-58
2024/02/07 08:44:23;;;;;;;4.67;1.27;;;;;;;17.21;54.32;100445.72;10419155;28;20071;-58
2024/02/07 08:49:23;;;;;;;3.33;1.10;;;;;;;17.19;53.77;100442.53;10424054;28;20321;-58
2024/02/07 08:54:24;;;;;;;4.40;1.30;;;;;;;17.19;54.25;100451.38;10430613;28;20314;-59
2024/02/07 08:59:24;;;;;;;5.33;0.90;;;;;;;17.18;54.59;100457.81;10434172;28;20025;-58
2024/02/07 09:04:25;;;;;;;4.30;1.35;;;;;;;17.22;53.24;100455.34;10453545;28;20763;-58
2024/02/07 09:09:25;;;;;;;3.08;0.75;;;;;;;17.22;54.68;100458.81;10445550;28;20349;-58
2024/02/07 09:14:25;;;;;;;4.53;1.10;;;;;;;17.24;53.21;100445.91;10410841;28;20044;-59
2024/02/07 09:19:25;;;;;;;4.37;1.03;;;;;;;17.26;53.59;100448.31;10410875;28;20296;-59
2024/02/07 09:24:26;;;;;;;2.67;1.23;;;;;;;17.25;54.49;100444.03;10410448;28;20272;-58
2024/02/07 09:29:27;;;;;;;3.67;0.80;;;;;;;17.21;53.59;100465.28;10410306;28;20368;-59
2024/02/07 09:34:27;;;;;;;4.13;1.35;;;;;;;17.16;53.52;100468.00;10440742;28;20298;-59
2024/02/07 09:39:28;;;;;;;8.00;1.33;;;;;;;17.18;53.44;100478.47;10425197;28;20515;-59
2024/02/07 09:44:30;;;;;;;2.10;0.77;;;;;;;17.20;55.00;100471.72;10437620;28;20021;-57
2024/02/07 09:49:31;;;;;;;5.15;1.30;;;;;;;17.19;53.79;100477.38;10450921;28;20275;-57
2024/02/07 09:54:31;;;;;;;4.85;0.85;;;;;;;17.17;54.62;100475.00;10451366;28;20041;-58
2024/02/07 09:59:32;;;;;;;5.13;1.03;;;;;;;17.21;54.02;100473.31;10450457;28;20033;-58
2024/02/07 10:04:37;;;;;;;1.77;0.73;;;;;;;17.19;53.10;100459.41;10449349;28;20274;-58
2024/02/07 10:09:38;;;;;;;2.40;0.80;;;;;;;17.18;53.01;100457.03;10442110;28;20496;-56
2024/02/07 10:14:40;;;;;;;3.47;1.17;;;;;;;17.16;54.07;100462.66;10408834;28;20237;-58
2024/02/07 10:19:40;;;;;;;1.95;1.10;;;;;;;17.18;52.87;100471.22;10407614;28;20049;-57
2024/02/07 10:24:41;;;;;;;4.13;1.50;;;;;;;17.22;54.09;100482.13;10408516;28;20033;-58
2024/02/07 10:29:41;;;;;;;2.40;0.88;;;;;;;17.18;54.16;100467.75;10409146;28;20032;-58
2024/02/07 10:34:48;;;;;;;4.13;0.90;;;;;;;17.14;54.27;100472.88;10408675;28;20017;-57
2024/02/07 10:39:49;;;;;;;3.80;1.55;;;;;;;17.17;52.88;100468.84;10407535;28;20026;-57
2024/02/07 10:45:01;;;;;;;4.10;0.70;;;;;;;17.16;53.27;100470.69;10411435;28;20031;-59
2024/02/07 10:50:03;;;;;;;1.55;0.70;;;;;;;17.14;54.01;100469.41;10408724;28;20022;-57
2024/02/07 10:55:06;;;;;;;4.15;1.25;;;;;;;17.13;53.65;100462.44;10410360;28;20504;-58
2024/02/07 11:00:07;;;;;;;4.13;1.05;;;;;;;17.16;53.56;100470.69;10408105;28;20108;-56
2024/02/07 11:05:08;;;;;;;4.57;0.90;;;;;;;17.13;53.73;100468.59;10407614;28;20107;-59
2024/02/07 11:10:09;;;;;;;5.70;1.73;;;;;;;17.20;54.29;100462.88;10426461;28;20056;-58
2024/02/07 11:15:10;;;;;;;5.20;1.70;;;;;;;17.27;53.68;100462.50;10437525;28;20033;-58
2024/02/07 11:20:11;;;;;;;7.20;1.60;;;;;;;17.22;55.68;100466.06;10408750;28;20026;-59
2024/02/07 11:25:16;;;;;;;8.57;1.27;;;;;;;17.22;55.87;100450.78;10408059;28;20736;-58
2024/02/07 11:30:18;;;;;;;5.25;2.40;;;;;;;17.21;55.63;100456.44;10417782;28;20371;-58
2024/02/07 11:35:22;;;;;;;7.40;1.90;;;;;;;17.18;55.47;100444.44;10432289;28;20282;-58
2024/02/07 11:40:26;;;;;;;16.33;2.13;;;;;;;17.14;55.59;100450.63;10435280;28;20041;-58
2024/02/07 11:45:27;;;;;;;8.55;2.38;;;;;;;17.18;56.09;100460.50;10412848;28;20025;-58
2024/02/07 11:50:35;;;;;;;12.48;2.28;;;;;;;17.17;55.57;100445.50;10406879;28;20025;-58
2024/02/07 11:55:40;;;;;;;7.88;1.65;;;;;;;17.14;54.89;100439.94;10406846;28;20048;-58
2024/02/07 12:00:41;;;;;;;14.43;1.85;;;;;;;17.05;56.51;100439.81;10407995;28;20029;-58
2024/02/07 12:05:42;;;;;;;10.40;3.03;;;;;;;17.15;55.00;100453.03;10413670;28;20033;-58
2024/02/07 12:10:43;;;;;;;7.93;1.40;;;;;;;17.09;55.77;100446.16;10429706;28;20104;-58
2024/02/07 12:15:43;;;;;;;7.70;1.83;;;;;;;17.11;56.65;100448.56;10414208;28;20045;-58
2024/02/07 12:20:43;;;;;;;10.90;1.80;;;;;;;17.09;56.19;100456.09;10414328;28;20029;-58
2024/02/07 12:25:55;;;;;;;4.97;1.20;;;;;;;17.07;56.05;100448.34;10405263;28;20083;-57
2024/02/07 12:30:56;;;;;;;4.03;1.17;;;;;;;17.02;56.45;100452.97;10438766;28;20280;-57
2024/02/07 12:35:57;;;;;;;4.82;1.30;;;;;;;17.02;56.17;100448.41;10413512;28;20025;-58
2024/02/07 12:40:59;;;;;;;4.53;1.77;;;;;;;17.06;55.94;100438.72;10423857;28;20112;-58
2024/02/07 12:46:04;;;;;;;5.15;1.63;;;;;;;17.10;56.08;100433.56;10413929;28;20044;-58
2024/02/07 12:51:06;;;;;;;12.73;1.67;;;;;;;17.06;55.93;100435.25;10426908;28;20155;-58
2024/02/07 12:56:08;;;;;;;8.93;2.42;;;;;;;17.08;55.71;100441.09;10416998;28;20029;-58
2024/02/07 13:01:08;;;;;;;10.32;2.35;;;;;;;17.09;56.85;100423.94;10411097;28;20033;-58
2024/02/07 13:06:08;;;;;;;7.17;1.97;;;;;;;17.08;55.71;100411.66;10411314;28;20041;-58
2024/02/07 13:11:09;;;;;;;5.23;1.93;;;;;;;17.08;56.08;100408.97;10432153;28;20291;-58
2024/02/07 13:16:09;;;;;;;5.43;1.98;;;;;;;17.08;55.67;100417.78;10450338;28;20770;-58
2024/02/07 13:21:10;;;;;;;6.95;2.10;;;;;;;17.04;56.06;100411.41;10443575;28;20049;-59
2024/02/07 13:26:11;;;;;;;6.93;2.33;;;;;;;17.05;56.07;100412.19;10430439;28;20029;-58
2024/02/07 13:31:11;;;;;;;7.93;2.20;;;;;;;17.03;55.26;100403.66;10412242;28;20029;-56
2024/02/07 13:36:11;;;;;;;6.90;2.03;;;;;;;17.03;55.65;100403.66;10422104;28;20038;-57
2024/02/07 13:41:18;;;;;;;7.37;1.67;;;;;;;17.06;56.80;100395.06;10416714;28;20648;-57
2024/02/07 13:46:19;;;;;;;15.10;2.55;;;;;;;17.04;56.28;100405.25;10408671;28;20330;-59
2024/02/07 13:51:19;;;;;;;16.42;2.83;;;;;;;16.95;57.12;100403.25;10423396;28;20747;-58
2024/02/07 13:56:20;;;;;;;8.93;1.73;;;;;;;16.91;55.97;100404.13;10409446;28;20181;-59
2024/02/07 14:01:20;;;;;;;13.02;3.40;;;;;;;16.87;56.96;100403.13;10408299;28;20283;-59
2024/02/07 14:06:21;;;;;;;16.00;2.67;;;;;;;16.99;54.39;100397.31;10408069;28;20383;-56
2024/02/07 14:11:21;;;;;;;10.20;2.47;;;;;;;17.03;54.58;100388.41;10422346;28;20349;-59
2024/02/07 14:16:21;;;;;;;11.23;2.97;;;;;;;16.93;55.37;100385.91;10408600;28;20292;-60
2024/02/07 14:21:22;;;;;;;11.00;2.20;;;;;;;16.82;56.09;100379.91;10408620;28;20017;-60
2024/02/07 14:26:22;;;;;;;6.82;1.90;;;;;;;16.78;56.52;100370.84;10408417;28;20033;-60
2024/02/07 14:31:22;;;;;;;5.60;2.23;;;;;;;16.74;55.84;100363.69;10409996;28;20072;-60
2024/02/07 14:36:23;;;;;;;5.87;2.00;;;;;;;16.70;55.95;100360.81;10421736;28;20325;-62
2024/02/07 14:41:23;;;;;;;8.80;2.10;;;;;;;16.72;55.88;100347.13;10421833;28;20279;-58
2024/02/07 14:46:23;;;;;;;6.28;2.30;;;;;;;16.75;55.54;100341.19;10409166;28;20620;-59
2024/02/07 14:51:24;;;;;;;6.27;1.57;;;;;;;16.81;56.03;100329.31;10408467;28;20109;-58
2024/02/07 14:56:24;;;;;;;16.47;3.13;;;;;;;16.78;57.03;100332.56;10407408;28;20689;-59
2024/02/07 15:01:24;;;;;;;21.80;4.47;;;;;;;16.80;56.44;100333.84;10407841;28;20367;-59
2024/02/07 15:06:25;;;;;;;36.15;4.90;;;;;;;16.81;55.97;100326.63;10407598;28;20366;-59
2024/02/07 15:11:25;;;;;;;19.43;4.30;;;;;;;16.93;56.63;100321.63;10420182;28;20025;-60
2024/02/07 15:16:25;;;;;;;18.20;3.90;;;;;;;16.94;56.33;100329.38;10405966;28;20794;-59
2024/02/07 15:21:25;;;;;;;17.57;3.87;;;;;;;16.97;57.18;100321.81;10407666;28;20300;-60
2024/02/07 15:26:26;;;;;;;17.13;3.28;;;;;;;16.90;56.74;100325.66;10407187;28;20619;-58
2024/02/07 15:31:26;;;;;;;22.95;3.97;;;;;;;16.89;55.17;100331.31;10410821;28;20420;-58
2024/02/07 15:36:27;;;;;;;18.95;3.83;;;;;;;16.88;56.06;100329.72;10423116;28;20025;-55
2024/02/07 15:41:27;;;;;;;24.42;4.80;;;;;;;16.91;56.07;100334.50;10420055;28;20037;-58
2024/02/07 15:46:27;;;;;;;12.37;4.57;;;;;;;16.95;56.23;100330.94;10414737;28;20112;-56
2024/02/07 15:51:28;;;;;;;86.07;39.20;;;;;;;17.07;55.71;100329.69;10414387;28;20315;-57
2024/02/07 15:56:28;;;;;;;76.55;34.92;;;;;;;17.12;56.52;100319.66;10414189;28;20268;-58
2024/02/07 16:01:28;;;;;;;62.43;31.50;;;;;;;17.14;56.77;100308.66;10413230;28;20040;-58
2024/02/07 16:06:35;;;;;;;65.78;31.90;;;;;;;17.16;57.59;100295.75;10413321;28;20374;-57
2024/02/07 16:11:36;;;;;;;73.90;32.38;;;;;;;17.21;57.66;100301.03;10419353;28;20029;-58
2024/02/07 16:16:40;;;;;;;67.65;30.50;;;;;;;17.27;60.43;100288.31;10425806;28;20536;-57
2024/02/07 16:21:41;;;;;;;49.30;25.30;;;;;;;17.16;57.55;100277.00;10418686;28;20385;-57
2024/02/07 16:26:41;;;;;;;53.63;22.90;;;;;;;17.14;57.59;100279.19;10412435;28;20032;-56
2024/02/07 16:31:41;;;;;;;44.67;19.77;;;;;;;17.11;56.07;100287.81;10440252;28;20295;-57
2024/02/07 16:36:42;;;;;;;32.60;16.43;;;;;;;17.18;56.48;100274.84;10413096;28;20294;-56
2024/02/07 16:41:43;;;;;;;35.30;14.23;;;;;;;17.12;56.00;100284.06;10412466;28;20855;-57
2024/02/07 16:46:43;;;;;;;33.38;12.48;;;;;;;17.17;54.37;100279.41;10412233;28;20393;-57
2024/02/07 16:51:43;;;;;;;44.28;13.23;;;;;;;17.44;56.92;100269.78;10410971;28;20108;-57
2024/02/07 16:56:43;;;;;;;32.00;12.37;;;;;;;17.47;58.66;100269.97;10411593;28;20488;-55
2024/02/07 17:01:44;;;;;;;31.07;11.53;;;;;;;17.52;57.70;100269.06;10411893;28;20282;-58
2024/02/07 17:06:45;;;;;;;30.63;13.37;;;;;;;17.52;56.99;100277.13;10411970;28;20307;-58
2024/02/07 17:11:45;;;;;;;23.77;10.35;;;;;;;17.47;57.38;100278.03;10421894;28;20695;-59
2024/02/07 17:16:46;;;;;;;28.15;11.52;;;;;;;17.46;57.73;100281.78;10407462;28;20037;-58
2024/02/07 17:21:46;;;;;;;22.93;11.93;;;;;;;17.41;56.90;100286.47;10409133;28;20033;-58
2024/02/07 17:26:46;;;;;;;23.80;9.10;;;;;;;17.32;56.76;100288.25;10410553;28;20036;-58
2024/02/07 17:31:48;;;;;;;51.37;11.33;;;;;;;17.30;57.06;100283.19;10424310;28;20384;-57
2024/02/07 17:36:48;;;;;;;20.27;8.82;;;;;;;17.27;56.96;100283.75;10420597;28;20279;-57
2024/02/07 17:41:48;;;;;;;19.00;8.40;;;;;;;17.18;56.16;100291.72;10417466;28;20025;-58
2024/02/07 17:46:49;;;;;;;21.40;8.05;;;;;;;17.14;56.28;100290.69;10425124;28;21519;-55
2024/02/07 17:51:49;;;;;;;19.73;7.70;;;;;;;17.11;56.10;100293.19;10421641;28;20029;-56
2024/02/07 17:56:52;;;;;;;15.47;6.73;;;;;;;17.04;55.10;100303.47;10411438;28;20306;-58
2024/02/07 18:01:52;;;;;;;15.95;6.22;;;;;;;16.98;56.52;100308.13;10422498;28;20271;-59
2024/02/07 18:06:52;;;;;;;20.47;6.57;;;;;;;16.94;55.59;100313.31;10417909;28;20033;-58
2024/02/07 18:11:53;;;;;;;14.97;6.90;;;;;;;16.95;55.02;100312.22;10427236;28;20323;-58
2024/02/07 18:16:53;;;;;;;15.60;6.18;;;;;;;16.96;55.51;100288.91;10420119;28;20303;-57
2024/02/07 18:21:53;;;;;;;14.15;7.15;;;;;;;16.93;56.54;100290.28;10416709;28;20021;-58
2024/02/07 18:26:55;;;;;;;14.67;6.53;;;;;;;16.87;55.94;100286.09;10412479;28;20041;-58
2024/02/07 18:31:55;;;;;;;13.65;6.40;;;;;;;16.91;56.23;100280.94;10416764;28;20292;-58
2024/02/07 18:36:56;;;;;;;18.37;8.70;;;;;;;16.93;56.07;100279.56;10405528;28;20397;-57
2024/02/07 18:41:56;;;;;;;15.27;6.40;;;;;;;16.93;55.96;100274.22;10410533;28;20285;-57
2024/02/07 18:46:56;;;;;;;17.35;5.60;;;;;;;16.94;56.12;100278.47;10409343;28;20679;-57
2024/02/07 18:51:57;;;;;;;12.95;6.18;;;;;;;16.97;55.86;100279.78;10427888;28;20041;-56
2024/02/07 18:56:57;;;;;;;18.27;6.20;;;;;;;17.01;55.82;100285.31;10417549;28;20124;-57
2024/02/07 19:01:58;;;;;;;11.05;5.85;;;;;;;17.08;56.29;100277.72;10404486;28;20284;-58
2024/02/07 19:06:58;;;;;;;12.05;5.28;;;;;;;17.09;55.31;100277.41;10435957;28;20087;-57
2024/02/07 19:11:58;;;;;;;16.55;6.90;;;;;;;17.11;55.74;100275.22;10419025;28;20044;-58
2024/02/07 19:16:59;;;;;;;12.23;5.33;;;;;;;17.25;55.82;100265.31;10416520;28;20508;-58
2024/02/07 19:21:59;;;;;;;12.85;5.20;;;;;;;17.22;56.32;100270.47;10416785;28;20287;-59
2024/02/07 19:26:59;;;;;;;10.27;5.07;;;;;;;17.25;55.65;100259.16;10416601;28;20029;-58
2024/02/07 19:32:00;;;;;;;14.97;7.13;;;;;;;17.46;56.34;100254.19;10426134;28;20033;-61
2024/02/07 19:37:00;;;;;;;13.95;5.70;;;;;;;17.48;57.50;100254.69;10431235;28;20301;-58
2024/02/07 19:42:02;;;;;;;16.23;5.77;;;;;;;17.33;57.05;100252.31;10423840;28;20026;-57
2024/02/07 19:47:02;;;;;;;12.27;5.45;;;;;;;17.25;56.92;100251.91;10415448;28;20795;-58
2024/02/07 19:52:03;;;;;;;16.70;5.72;;;;;;;17.22;57.56;100254.41;10415796;28;20082;-59
2024/02/07 19:57:04;;;;;;;12.20;5.93;;;;;;;17.20;58.16;100269.97;10431358;28;20146;-59
2024/02/07 20:02:04;;;;;;;13.00;5.75;;;;;;;17.13;58.00;100265.00;10431025;28;20032;-59
2024/02/07 20:07:04;;;;;;;10.50;6.13;;;;;;;17.14;57.56;100263.13;10429901;28;20036;-59
2024/02/07 20:12:05;;;;;;;8.83;4.77;;;;;;;17.04;57.16;100258.72;10427992;28;20298;-60
2024/02/07 20:17:07;;;;;;;10.68;5.43;;;;;;;17.05;56.37;100257.66;10433883;28;20759;-58
2024/02/07 20:22:08;;;;;;;11.68;6.53;;;;;;;17.03;57.04;100259.81;10429774;28;20105;-57
2024/02/07 20:27:08;;;;;;;11.73;4.10;;;;;;;17.06;57.09;100266.50;10427250;28;20029;-55
2024/02/07 20:32:08;;;;;;;9.07;4.63;;;;;;;17.11;55.75;100264.50;10442099;28;20955;-58
2024/02/07 20:37:09;;;;;;;11.63;5.47;;;;;;;17.07;57.13;100274.25;10413631;28;20264;-58
2024/02/07 20:42:09;;;;;;;8.40;4.07;;;;;;;17.08;56.81;100275.03;10413618;28;20736;-57
2024/02/07 20:47:09;;;;;;;8.48;4.18;;;;;;;17.10;56.79;100286.25;10419583;28;20385;-57
2024/02/07 20:52:10;;;;;;;11.70;4.13;;;;;;;17.10;55.07;100284.34;10440460;28;20067;-58
2024/02/07 20:57:13;;;;;;;6.90;4.30;;;;;;;17.12;56.06;100273.34;10428277;28;20315;-58
2024/02/07 21:02:14;;;;;;;6.68;3.58;;;;;;;17.13;55.46;100269.56;10426544;28;21562;-57
2024/02/07 21:07:14;;;;;;;6.03;2.90;;;;;;;17.16;54.39;100282.34;10429569;28;20163;-58
2024/02/07 21:12:14;;;;;;;7.10;3.10;;;;;;;17.16;55.92;100275.13;10414888;28;20647;-58
2024/02/07 21:17:15;;;;;;;5.80;3.50;;;;;;;17.14;55.97;100269.25;10412204;28;20323;-58
2024/02/07 21:22:15;;;;;;;6.68;3.90;;;;;;;17.18;55.70;100272.16;10411939;28;20029;-58
2024/02/07 21:27:16;;;;;;;5.33;2.93;;;;;;;17.17;55.21;100267.91;10411884;28;20439;-58
2024/02/07 21:32:18;;;;;;;4.20;2.67;;;;;;;17.19;54.30;100269.19;10412303;28;20299;-58
2024/02/07 21:37:18;;;;;;;8.23;3.22;;;;;;;17.20;54.72;100265.41;10410964;28;20041;-58
2024/02/07 21:42:19;;;;;;;3.97;2.07;;;;;;;17.17;54.61;100263.34;10411006;28;20045;-58
2024/02/07 21:47:20;;;;;;;6.63;2.67;;;;;;;17.15;53.85;100264.69;10411149;28;20276;-57
2024/02/07 21:52:20;;;;;;;6.10;2.63;;;;;;;17.16;55.11;100256.38;10409354;28;20025;-58
2024/02/07 21:57:21;;;;;;;5.60;3.17;;;;;;;17.19;54.38;100257.69;10410694;28;20449;-58
2024/02/07 22:02:22;;;;;;;5.95;2.75;;;;;;;17.19;54.11;100249.63;10410328;28;20271;-58
2024/02/07 22:07:22;;;;;;;9.02;2.80;;;;;;;17.19;53.99;100242.41;10413354;28;20016;-58
2024/02/07 22:12:24;;;;;;;4.03;1.83;;;;;;;17.20;54.22;100233.25;10418064;28;20025;-58
2024/02/07 22:17:26;;;;;;;4.72;2.60;;;;;;;17.18;53.42;100229.31;10409584;28;20296;-58
2024/02/07 22:22:28;;;;;;;4.53;2.78;;;;;;;17.22;54.57;100230.28;10407959;28;20044;-58
2024/02/07 22:27:28;;;;;;;3.80;2.20;;;;;;;17.18;53.53;100235.44;10409331;28;20057;-58
2024/02/07 22:32:29;;;;;;;5.87;2.47;;;;;;;17.22;53.70;100235.66;10431818;28;20025;-57
2024/02/07 22:37:30;;;;;;;5.93;2.35;;;;;;;17.21;53.83;100232.16;10450579;28;20287;-56
2024/02/07 22:42:30;;;;;;;4.10;2.30;;;;;;;17.19;53.36;100220.19;10449933;28;20025;-57
2024/02/07 22:47:30;;;;;;;5.13;2.33;;;;;;;17.20;53.65;100230.59;10450306;28;20091;-57
2024/02/07 22:52:31;;;;;;;5.13;2.00;;;;;;;17.18;52.88;100240.03;10410049;28;20025;-57
2024/02/07 22:57:31;;;;;;;5.75;2.55;;;;;;;17.21;53.50;100232.16;10409067;28;20283;-58
2024/02/07 23:02:32;;;;;;;3.60;2.20;;;;;;;17.21;53.57;100236.75;10408631;28;20021;-58
2024/02/07 23:07:32;;;;;;;4.90;2.13;;;;;;;17.23;53.17;100229.97;10413027;28;20726;-58
2024/02/07 23:12:32;;;;;;;3.83;2.10;;;;;;;17.25;53.32;100230.47;10415904;28;20280;-58
2024/02/07 23:17:35;;;;;;;5.07;2.23;;;;;;;17.29;52.83;100224.53;10407133;28;20766;-58
2024/02/07 23:22:35;;;;;;;6.18;2.38;;;;;;;17.30;52.05;100224.25;10408119;28;20269;-58
2024/02/07 23:27:36;;;;;;;4.65;1.98;;;;;;;17.31;52.16;100225.03;10408516;28;20025;-59
2024/02/07 23:32:36;;;;;;;3.88;1.70;;;;;;;17.30;52.05;100229.59;10433071;28;20037;-57
2024/02/07 23:37:36;;;;;;;4.57;2.00;;;;;;;17.32;52.69;100234.66;10408209;28;20025;-58
2024/02/07 23:42:37;;;;;;;3.65;1.75;;;;;;;17.35;51.62;100228.69;10407945;28;20424;-58
2024/02/07 23:47:38;;;;;;;4.33;2.03;;;;;;;17.35;51.38;100229.50;10408087;28;20453;-58
2024/02/07 23:52:38;;;;;;;3.55;2.13;;;;;;;17.34;52.15;100219.84;10406484;28;20778;-58
2024/02/07 23:57:39;;;;;;;4.20;2.15;;;;;;;17.35;51.91;100212.63;10406678;28;20026;-58
